sensor_id;sensor_type;location;lat;lon;timestamp;temperature;humidity
64689;DHT22;62504;46.070;14.492;2024-01-15T00:01:34;6.70;99.90
64689;DHT22;62504;46.070;14.492;2024-01-15T00:04:00;6.70;99.90
64689;DHT22;62504;46.070;14.492;2024-01-15T00:06:25;6.70;99.90
64689;DHT22;62504;46.070;14.492;2024-01-15T00:08:52;6.70;99.90
64689;DHT22;62504;46.070;14.492;2024-01-15T00:11:18;6.70;99.90
64689;DHT22;62504;46.070;14.492;2024-01-15T00:13:43;6.70;99.90
64689;DHT22;62504;46.070;14.492;2024-01-15T00:16:09;6.70;99.90
64689;DHT22;62504;46.070;14.492;2024-01-15T00:18:35;6.60;99.90
64689;DHT22;62504;46.070;14.492;2024-01-15T00:21:01;6.70;99.90
64689;DHT22;62504;46.070;14.492;2024-01-15T00:23:27;6.70;99.90
64689;DHT22;62504;46.070;14.492;2024-01-15T00:25:52;6.70;99.90
64689;DHT22;62504;46.070;14.492;2024-01-15T00:28:18;6.70;99.90
64689;DHT22;62504;46.070;14.492;2024-01-15T00:30:44;6.70;99.90
64689;DHT22;62504;46.070;14.492;2024-01-15T00:33:09;6.70;99.90
64689;DHT22;62504;46.070;14.492;2024-01-15T00:35:37;6.70;99.90
64689;DHT22;62504;46.070;14.492;2024-01-15T00:38:03;6.70;99.90
64689;DHT22;62504;46.070;14.492;2024-01-15T00:40:29;6.70;99.90
64689;DHT22;62504;46.070;14.492;2024-01-15T00:42:54;6.70;99.90
64689;DHT22;62504;46.070;14.492;2024-01-15T00:45:20;6.70;99.90
64689;DHT22;62504;46.070;14.492;2024-01-15T00:47:46;6.70;99.90
64689;DHT22;62504;46.070;14.492;2024-01-15T00:50:11;6.70;99.90
64689;DHT22;62504;46.070;14.492;2024-01-15T00:52:37;6.70;99.90
64689;DHT22;62504;46.070;14.492;2024-01-15T00:55:03;6.70;99.90
64689;DHT22;62504;46.070;14.492;2024-01-15T00:57:29;6.70;99.90
64689;DHT22;62504;46.070;14.492;2024-01-15T00:59:54;6.60;99.90
64689;DHT22;62504;46.070;14.492;2024-01-15T01:02:20;6.70;99.90
64689;DHT22;62504;46.070;14.492;2024-01-15T01:04:46;6.70;99.90
64689;DHT22;62504;46.070;14.492;2024-01-15T01:07:11;6.70;99.90
64689;DHT22;62504;46.070;14.492;2024-01-15T01:09:37;6.70;99.90
64689;DHT22;62504;46.070;14.492;2024-01-15T01:12:03;6.70;99.90
64689;DHT22;62504;46.070;14.492;2024-01-15T01:14:28;6.70;99.90
64689;DHT22;62504;46.070;14.492;2024-01-15T01:16:54;6.70;99.90
64689;DHT22;62504;46.070;14.492;2024-01-15T01:19:20;6.70;99.90
64689;DHT22;62504;46.070;14.492;2024-01-15T01:21:45;6.70;99.90
64689;DHT22;62504;46.070;14.492;2024-01-15T01:24:11;6.70;99.90
64689;DHT22;62504;46.070;14.492;2024-01-15T01:26:37;6.60;99.90
64689;DHT22;62504;46.070;14.492;2024-01-15T01:29:02;6.60;99.90
64689;DHT22;62504;46.070;14.492;2024-01-15T01:31:28;6.60;99.90
64689;DHT22;62504;46.070;14.492;2024-01-15T01:33:53;6.60;99.90
64689;DHT22;62504;46.070;14.492;2024-01-15T01:36:19;6.70;99.90
64689;DHT22;62504;46.070;14.492;2024-01-15T01:38:45;6.70;99.90
64689;DHT22;62504;46.070;14.492;2024-01-15T01:41:10;6.70;99.90
64689;DHT22;62504;46.070;14.492;2024-01-15T01:43:36;6.70;99.90
64689;DHT22;62504;46.070;14.492;2024-01-15T01:46:03;6.70;99.90
64689;DHT22;62504;46.070;14.492;2024-01-15T01:48:29;6.80;99.90
64689;DHT22;62504;46.070;14.492;2024-01-15T01:51:01;6.80;99.90
64689;DHT22;62504;46.070;14.492;2024-01-15T01:53:28;6.80;99.90
64689;DHT22;62504;46.070;14.492;2024-01-15T01:55:56;6.80;99.90
64689;DHT22;62504;46.070;14.492;2024-01-15T01:58:22;6.80;99.90
64689;DHT22;62504;46.070;14.492;2024-01-15T02:00:48;6.70;99.90
64689;DHT22;62504;46.070;14.492;2024-01-15T02:03:15;6.80;99.90
64689;DHT22;62504;46.070;14.492;2024-01-15T02:05:43;6.80;99.90
64689;DHT22;62504;46.070;14.492;2024-01-15T02:08:10;6.80;99.90
64689;DHT22;62504;46.070;14.492;2024-01-15T02:10:35;6.80;99.90
64689;DHT22;62504;46.070;14.492;2024-01-15T02:13:02;6.80;99.90
64689;DHT22;62504;46.070;14.492;2024-01-15T02:15:28;6.70;99.90
64689;DHT22;62504;46.070;14.492;2024-01-15T02:18:06;6.70;99.90
64689;DHT22;62504;46.070;14.492;2024-01-15T02:20:33;6.70;99.90
64689;DHT22;62504;46.070;14.492;2024-01-15T02:25:35;6.70;99.90
64689;DHT22;62504;46.070;14.492;2024-01-15T02:28:01;6.70;99.90
64689;DHT22;62504;46.070;14.492;2024-01-15T02:30:27;6.70;99.90
64689;DHT22;62504;46.070;14.492;2024-01-15T02:32:54;6.70;99.90
64689;DHT22;62504;46.070;14.492;2024-01-15T02:35:19;6.70;99.90
64689;DHT22;62504;46.070;14.492;2024-01-15T02:37:45;6.70;99.90
64689;DHT22;62504;46.070;14.492;2024-01-15T02:40:11;6.70;99.90
64689;DHT22;62504;46.070;14.492;2024-01-15T02:42:36;6.60;99.90
64689;DHT22;62504;46.070;14.492;2024-01-15T02:45:03;6.70;99.90
64689;DHT22;62504;46.070;14.492;2024-01-15T02:47:28;6.70;99.90
64689;DHT22;62504;46.070;14.492;2024-01-15T02:49:54;6.70;99.90
64689;DHT22;62504;46.070;14.492;2024-01-15T02:52:20;6.60;99.90
64689;DHT22;62504;46.070;14.492;2024-01-15T02:54:46;6.60;99.90
64689;DHT22;62504;46.070;14.492;2024-01-15T02:57:11;6.60;99.90
64689;DHT22;62504;46.070;14.492;2024-01-15T02:59:37;6.50;99.90
64689;DHT22;62504;46.070;14.492;2024-01-15T03:02:03;6.60;99.90
64689;DHT22;62504;46.070;14.492;2024-01-15T03:04:28;6.50;99.90
64689;DHT22;62504;46.070;14.492;2024-01-15T03:06:54;6.50;99.90
64689;DHT22;62504;46.070;14.492;2024-01-15T03:09:19;6.50;99.90
64689;DHT22;62504;46.070;14.492;2024-01-15T03:11:45;6.50;99.90
64689;DHT22;62504;46.070;14.492;2024-01-15T03:14:11;6.50;99.90
64689;DHT22;62504;46.070;14.492;2024-01-15T03:16:36;6.50;99.90
64689;DHT22;62504;46.070;14.492;2024-01-15T03:19:02;6.50;99.90
64689;DHT22;62504;46.070;14.492;2024-01-15T03:21:28;6.50;99.90
64689;DHT22;62504;46.070;14.492;2024-01-15T03:23:54;6.50;99.90
64689;DHT22;62504;46.070;14.492;2024-01-15T03:26:19;6.50;99.90
64689;DHT22;62504;46.070;14.492;2024-01-15T03:28:45;6.50;99.90
64689;DHT22;62504;46.070;14.492;2024-01-15T03:31:10;6.40;99.90
64689;DHT22;62504;46.070;14.492;2024-01-15T03:33:36;6.50;99.90
64689;DHT22;62504;46.070;14.492;2024-01-15T03:36:02;6.50;99.90
64689;DHT22;62504;46.070;14.492;2024-01-15T03:38:30;6.50;99.90
64689;DHT22;62504;46.070;14.492;2024-01-15T03:40:56;6.50;99.90
64689;DHT22;62504;46.070;14.492;2024-01-15T03:43:21;6.50;99.90
64689;DHT22;62504;46.070;14.492;2024-01-15T03:45:47;6.50;99.90
64689;DHT22;62504;46.070;14.492;2024-01-15T03:48:13;6.50;99.90
64689;DHT22;62504;46.070;14.492;2024-01-15T03:50:39;6.40;99.90
64689;DHT22;62504;46.070;14.492;2024-01-15T03:53:05;6.40;99.90
64689;DHT22;62504;46.070;14.492;2024-01-15T03:55:30;6.50;99.90
64689;DHT22;62504;46.070;14.492;2024-01-15T03:57:56;6.40;99.90
64689;DHT22;62504;46.070;14.492;2024-01-15T04:00:22;6.40;99.90
64689;DHT22;62504;46.070;14.492;2024-01-15T04:02:48;6.40;99.90
64689;DHT22;62504;46.070;14.492;2024-01-15T04:05:13;6.40;99.90
64689;DHT22;62504;46.070;14.492;2024-01-15T04:07:39;6.30;99.90
64689;DHT22;62504;46.070;14.492;2024-01-15T04:10:05;6.30;99.90
64689;DHT22;62504;46.070;14.492;2024-01-15T04:12:31;6.30;99.90
64689;DHT22;62504;46.070;14.492;2024-01-15T04:14:57;6.30;99.90
64689;DHT22;62504;46.070;14.492;2024-01-15T04:17:22;6.30;99.90
64689;DHT22;62504;46.070;14.492;2024-01-15T04:19:48;6.40;99.90
64689;DHT22;62504;46.070;14.492;2024-01-15T04:22:14;6.40;99.90
64689;DHT22;62504;46.070;14.492;2024-01-15T04:24:39;6.40;99.90
64689;DHT22;62504;46.070;14.492;2024-01-15T04:27:06;6.40;99.90
64689;DHT22;62504;46.070;14.492;2024-01-15T04:29:32;6.40;99.90
64689;DHT22;62504;46.070;14.492;2024-01-15T04:31:57;6.40;99.90
64689;DHT22;62504;46.070;14.492;2024-01-15T04:34:23;6.30;99.90
64689;DHT22;62504;46.070;14.492;2024-01-15T04:36:49;6.40;99.90
64689;DHT22;62504;46.070;14.492;2024-01-15T04:39:15;6.30;99.90
64689;DHT22;62504;46.070;14.492;2024-01-15T04:41:41;6.30;99.90
64689;DHT22;62504;46.070;14.492;2024-01-15T04:44:06;6.40;99.90
64689;DHT22;62504;46.070;14.492;2024-01-15T04:46:32;6.40;99.90
64689;DHT22;62504;46.070;14.492;2024-01-15T04:48:58;6.40;99.90
64689;DHT22;62504;46.070;14.492;2024-01-15T04:51:23;6.50;99.90
64689;DHT22;62504;46.070;14.492;2024-01-15T04:53:49;6.40;99.90
64689;DHT22;62504;46.070;14.492;2024-01-15T04:56:15;6.40;99.90
64689;DHT22;62504;46.070;14.492;2024-01-15T04:58:40;6.40;99.90
64689;DHT22;62504;46.070;14.492;2024-01-15T05:01:08;6.40;99.90
64689;DHT22;62504;46.070;14.492;2024-01-15T05:03:33;6.40;99.90
64689;DHT22;62504;46.070;14.492;2024-01-15T05:05:59;6.40;99.90
64689;DHT22;62504;46.070;14.492;2024-01-15T05:08:25;6.40;99.90
64689;DHT22;62504;46.070;14.492;2024-01-15T05:10:50;6.40;99.90
64689;DHT22;62504;46.070;14.492;2024-01-15T05:13:16;6.40;99.90
64689;DHT22;62504;46.070;14.492;2024-01-15T05:15:41;6.40;99.90
64689;DHT22;62504;46.070;14.492;2024-01-15T05:18:07;6.30;99.90
64689;DHT22;62504;46.070;14.492;2024-01-15T05:20:33;6.30;99.90
64689;DHT22;62504;46.070;14.492;2024-01-15T05:22:58;6.40;99.90
64689;DHT22;62504;46.070;14.492;2024-01-15T05:25:24;6.40;99.90
64689;DHT22;62504;46.070;14.492;2024-01-15T05:27:50;6.40;99.90
64689;DHT22;62504;46.070;14.492;2024-01-15T05:30:19;6.40;99.90
64689;DHT22;62504;46.070;14.492;2024-01-15T05:32:47;6.40;99.90
64689;DHT22;62504;46.070;14.492;2024-01-15T05:35:13;6.30;99.90
64689;DHT22;62504;46.070;14.492;2024-01-15T05:37:43;6.20;99.90
64689;DHT22;62504;46.070;14.492;2024-01-15T05:40:09;6.10;99.90
64689;DHT22;62504;46.070;14.492;2024-01-15T05:42:35;6.10;99.90
64689;DHT22;62504;46.070;14.492;2024-01-15T05:45:00;6.10;99.90
64689;DHT22;62504;46.070;14.492;2024-01-15T05:47:29;6.10;99.90
64689;DHT22;62504;46.070;14.492;2024-01-15T05:49:54;6.10;99.90
64689;DHT22;62504;46.070;14.492;2024-01-15T05:52:20;6.20;99.90
64689;DHT22;62504;46.070;14.492;2024-01-15T05:54:47;6.20;99.90
64689;DHT22;62504;46.070;14.492;2024-01-15T05:57:13;6.20;99.90
64689;DHT22;62504;46.070;14.492;2024-01-15T05:59:39;6.30;99.90
64689;DHT22;62504;46.070;14.492;2024-01-15T06:02:04;6.20;99.90
64689;DHT22;62504;46.070;14.492;2024-01-15T06:04:30;6.20;99.90
64689;DHT22;62504;46.070;14.492;2024-01-15T06:06:55;6.30;99.90
64689;DHT22;62504;46.070;14.492;2024-01-15T06:09:21;6.30;99.90
64689;DHT22;62504;46.070;14.492;2024-01-15T06:11:47;6.30;99.90
64689;DHT22;62504;46.070;14.492;2024-01-15T06:14:13;6.30;99.90
64689;DHT22;62504;46.070;14.492;2024-01-15T06:16:39;6.30;99.90
64689;DHT22;62504;46.070;14.492;2024-01-15T06:19:04;6.30;99.90
64689;DHT22;62504;46.070;14.492;2024-01-15T06:21:30;6.30;99.90
64689;DHT22;62504;46.070;14.492;2024-01-15T06:23:56;6.30;99.90
64689;DHT22;62504;46.070;14.492;2024-01-15T06:26:22;6.40;99.90
64689;DHT22;62504;46.070;14.492;2024-01-15T06:28:48;6.30;99.90
64689;DHT22;62504;46.070;14.492;2024-01-15T06:31:14;6.30;99.90
64689;DHT22;62504;46.070;14.492;2024-01-15T06:33:40;6.30;99.90
64689;DHT22;62504;46.070;14.492;2024-01-15T06:36:06;6.30;99.90
64689;DHT22;62504;46.070;14.492;2024-01-15T06:38:32;6.30;99.90
64689;DHT22;62504;46.070;14.492;2024-01-15T06:40:57;6.30;99.90
64689;DHT22;62504;46.070;14.492;2024-01-15T06:43:23;6.30;99.90
64689;DHT22;62504;46.070;14.492;2024-01-15T06:45:49;6.30;99.90
64689;DHT22;62504;46.070;14.492;2024-01-15T06:48:15;6.40;99.90
64689;DHT22;62504;46.070;14.492;2024-01-15T06:50:42;6.40;99.90
64689;DHT22;62504;46.070;14.492;2024-01-15T06:53:08;6.40;99.90
64689;DHT22;62504;46.070;14.492;2024-01-15T06:55:34;6.50;99.90
64689;DHT22;62504;46.070;14.492;2024-01-15T06:58:00;6.50;99.90
64689;DHT22;62504;46.070;14.492;2024-01-15T07:00:25;6.40;99.90
64689;DHT22;62504;46.070;14.492;2024-01-15T07:02:53;6.40;99.90
64689;DHT22;62504;46.070;14.492;2024-01-15T07:05:19;6.40;99.90
64689;DHT22;62504;46.070;14.492;2024-01-15T07:07:45;6.50;99.90
64689;DHT22;62504;46.070;14.492;2024-01-15T07:10:11;6.50;99.90
64689;DHT22;62504;46.070;14.492;2024-01-15T07:12:37;6.50;99.90
64689;DHT22;62504;46.070;14.492;2024-01-15T07:15:03;6.50;99.90
64689;DHT22;62504;46.070;14.492;2024-01-15T07:17:29;6.50;99.90
64689;DHT22;62504;46.070;14.492;2024-01-15T07:19:56;6.50;99.90
64689;DHT22;62504;46.070;14.492;2024-01-15T07:22:22;6.60;99.90
64689;DHT22;62504;46.070;14.492;2024-01-15T07:24:47;6.60;99.90
64689;DHT22;62504;46.070;14.492;2024-01-15T07:27:13;6.60;99.90
64689;DHT22;62504;46.070;14.492;2024-01-15T07:29:38;6.60;99.90
64689;DHT22;62504;46.070;14.492;2024-01-15T07:32:04;6.60;99.90
64689;DHT22;62504;46.070;14.492;2024-01-15T07:34:30;6.60;99.90
64689;DHT22;62504;46.070;14.492;2024-01-15T07:36:57;6.70;99.90
64689;DHT22;62504;46.070;14.492;2024-01-15T07:39:23;6.60;99.90
64689;DHT22;62504;46.070;14.492;2024-01-15T07:41:50;6.70;99.90
64689;DHT22;62504;46.070;14.492;2024-01-15T07:44:16;6.70;99.90
64689;DHT22;62504;46.070;14.492;2024-01-15T07:46:46;6.80;99.90
64689;DHT22;62504;46.070;14.492;2024-01-15T07:49:12;6.80;99.90
64689;DHT22;62504;46.070;14.492;2024-01-15T07:51:37;6.80;99.90
64689;DHT22;62504;46.070;14.492;2024-01-15T07:54:03;6.80;99.90
64689;DHT22;62504;46.070;14.492;2024-01-15T07:56:29;6.90;99.90
64689;DHT22;62504;46.070;14.492;2024-01-15T07:58:56;6.80;99.90
64689;DHT22;62504;46.070;14.492;2024-01-15T08:01:22;6.80;99.90
64689;DHT22;62504;46.070;14.492;2024-01-15T08:03:47;6.70;99.90
64689;DHT22;62504;46.070;14.492;2024-01-15T08:06:13;6.70;99.90
64689;DHT22;62504;46.070;14.492;2024-01-15T08:08:39;6.60;99.90
64689;DHT22;62504;46.070;14.492;2024-01-15T08:11:05;6.70;99.90
64689;DHT22;62504;46.070;14.492;2024-01-15T08:13:30;6.70;99.90
64689;DHT22;62504;46.070;14.492;2024-01-15T08:15:56;6.60;99.90
64689;DHT22;62504;46.070;14.492;2024-01-15T08:18:22;6.60;99.90
64689;DHT22;62504;46.070;14.492;2024-01-15T08:20:47;6.50;99.90
64689;DHT22;62504;46.070;14.492;2024-01-15T08:23:13;6.50;99.90
64689;DHT22;62504;46.070;14.492;2024-01-15T08:25:39;6.50;99.90
64689;DHT22;62504;46.070;14.492;2024-01-15T08:28:05;6.50;99.90
64689;DHT22;62504;46.070;14.492;2024-01-15T08:30:30;6.50;99.90
64689;DHT22;62504;46.070;14.492;2024-01-15T08:32:56;6.50;99.90
64689;DHT22;62504;46.070;14.492;2024-01-15T08:35:22;6.50;99.90
64689;DHT22;62504;46.070;14.492;2024-01-15T08:37:51;6.50;99.90
64689;DHT22;62504;46.070;14.492;2024-01-15T08:40:17;6.60;99.90
64689;DHT22;62504;46.070;14.492;2024-01-15T08:42:43;6.60;99.90
64689;DHT22;62504;46.070;14.492;2024-01-15T08:45:09;6.60;99.90
64689;DHT22;62504;46.070;14.492;2024-01-15T08:47:35;6.60;99.90
64689;DHT22;62504;46.070;14.492;2024-01-15T08:50:01;6.70;99.90
64689;DHT22;62504;46.070;14.492;2024-01-15T08:52:28;6.70;99.90
64689;DHT22;62504;46.070;14.492;2024-01-15T08:54:56;6.70;99.90
64689;DHT22;62504;46.070;14.492;2024-01-15T08:57:21;6.70;99.90
64689;DHT22;62504;46.070;14.492;2024-01-15T08:59:47;6.80;99.90
64689;DHT22;62504;46.070;14.492;2024-01-15T09:02:13;6.80;99.90
64689;DHT22;62504;46.070;14.492;2024-01-15T09:04:39;6.90;99.90
64689;DHT22;62504;46.070;14.492;2024-01-15T09:07:05;7.00;99.90
64689;DHT22;62504;46.070;14.492;2024-01-15T09:09:30;7.00;99.90
64689;DHT22;62504;46.070;14.492;2024-01-15T09:11:56;7.30;99.90
64689;DHT22;62504;46.070;14.492;2024-01-15T09:14:22;7.60;99.90
64689;DHT22;62504;46.070;14.492;2024-01-15T09:16:49;7.60;99.90
64689;DHT22;62504;46.070;14.492;2024-01-15T09:19:15;7.60;99.90
64689;DHT22;62504;46.070;14.492;2024-01-15T09:21:41;7.70;99.90
64689;DHT22;62504;46.070;14.492;2024-01-15T09:24:06;7.80;99.90
64689;DHT22;62504;46.070;14.492;2024-01-15T09:26:32;7.80;99.90
64689;DHT22;62504;46.070;14.492;2024-01-15T09:28:58;7.90;99.90
64689;DHT22;62504;46.070;14.492;2024-01-15T09:31:23;8.00;99.90
64689;DHT22;62504;46.070;14.492;2024-01-15T09:33:49;8.30;99.90
64689;DHT22;62504;46.070;14.492;2024-01-15T09:36:18;9.10;99.90
64689;DHT22;62504;46.070;14.492;2024-01-15T09:38:43;9.60;99.90
64689;DHT22;62504;46.070;14.492;2024-01-15T09:41:09;9.50;99.90
64689;DHT22;62504;46.070;14.492;2024-01-15T09:43:36;9.20;99.90
64689;DHT22;62504;46.070;14.492;2024-01-15T09:46:03;9.00;99.90
64689;DHT22;62504;46.070;14.492;2024-01-15T09:48:29;9.00;99.90
64689;DHT22;62504;46.070;14.492;2024-01-15T09:50:57;8.90;99.90
64689;DHT22;62504;46.070;14.492;2024-01-15T09:53:25;8.70;99.90
64689;DHT22;62504;46.070;14.492;2024-01-15T09:55:52;8.70;99.90
64689;DHT22;62504;46.070;14.492;2024-01-15T09:58:18;8.60;99.90
64689;DHT22;62504;46.070;14.492;2024-01-15T10:00:44;8.70;99.90
64689;DHT22;62504;46.070;14.492;2024-01-15T10:03:13;9.20;99.90
64689;DHT22;62504;46.070;14.492;2024-01-15T10:05:39;9.30;99.90
64689;DHT22;62504;46.070;14.492;2024-01-15T10:08:05;9.20;99.90
64689;DHT22;62504;46.070;14.492;2024-01-15T10:10:31;9.00;99.90
64689;DHT22;62504;46.070;14.492;2024-01-15T10:12:58;8.70;99.90
64689;DHT22;62504;46.070;14.492;2024-01-15T10:15:26;8.70;99.90
64689;DHT22;62504;46.070;14.492;2024-01-15T10:17:52;8.60;99.90
64689;DHT22;62504;46.070;14.492;2024-01-15T10:20:17;8.70;99.90
64689;DHT22;62504;46.070;14.492;2024-01-15T10:22:44;8.70;99.90
64689;DHT22;62504;46.070;14.492;2024-01-15T10:25:12;8.90;99.90
64689;DHT22;62504;46.070;14.492;2024-01-15T10:27:39;8.90;99.90
64689;DHT22;62504;46.070;14.492;2024-01-15T10:30:06;8.90;99.90
64689;DHT22;62504;46.070;14.492;2024-01-15T10:32:32;8.90;99.90
64689;DHT22;62504;46.070;14.492;2024-01-15T10:34:57;8.60;99.90
64689;DHT22;62504;46.070;14.492;2024-01-15T10:37:24;8.50;99.90
64689;DHT22;62504;46.070;14.492;2024-01-15T10:39:51;8.60;99.90
64689;DHT22;62504;46.070;14.492;2024-01-15T10:42:17;8.50;99.90
64689;DHT22;62504;46.070;14.492;2024-01-15T10:44:44;8.50;99.90
64689;DHT22;62504;46.070;14.492;2024-01-15T10:47:12;8.60;99.90
64689;DHT22;62504;46.070;14.492;2024-01-15T10:49:39;8.70;99.90
64689;DHT22;62504;46.070;14.492;2024-01-15T10:52:05;8.80;99.90
64689;DHT22;62504;46.070;14.492;2024-01-15T10:54:32;8.70;99.90
64689;DHT22;62504;46.070;14.492;2024-01-15T10:56:58;8.70;99.90
64689;DHT22;62504;46.070;14.492;2024-01-15T10:59:23;8.60;99.90
64689;DHT22;62504;46.070;14.492;2024-01-15T11:01:51;8.50;99.90
64689;DHT22;62504;46.070;14.492;2024-01-15T11:04:20;8.50;99.90
64689;DHT22;62504;46.070;14.492;2024-01-15T11:06:48;8.50;99.90
64689;DHT22;62504;46.070;14.492;2024-01-15T11:09:15;8.60;99.90
64689;DHT22;62504;46.070;14.492;2024-01-15T11:11:47;8.50;99.90
64689;DHT22;62504;46.070;14.492;2024-01-15T11:14:41;8.60;99.90
64689;DHT22;62504;46.070;14.492;2024-01-15T11:17:10;8.60;99.90
64689;DHT22;62504;46.070;14.492;2024-01-15T11:19:45;8.60;99.90
64689;DHT22;62504;46.070;14.492;2024-01-15T11:25:12;8.60;99.90
64689;DHT22;62504;46.070;14.492;2024-01-15T11:27:45;8.60;99.90
64689;DHT22;62504;46.070;14.492;2024-01-15T11:30:13;8.70;99.90
64689;DHT22;62504;46.070;14.492;2024-01-15T11:32:39;8.70;99.90
64689;DHT22;62504;46.070;14.492;2024-01-15T11:35:09;8.70;99.90
64689;DHT22;62504;46.070;14.492;2024-01-15T11:40:20;8.70;99.90
64689;DHT22;62504;46.070;14.492;2024-01-15T11:42:46;8.70;99.90
64689;DHT22;62504;46.070;14.492;2024-01-15T11:45:15;8.70;99.90
64689;DHT22;62504;46.070;14.492;2024-01-15T11:50:21;8.80;99.90
64689;DHT22;62504;46.070;14.492;2024-01-15T11:52:59;8.80;99.90
64689;DHT22;62504;46.070;14.492;2024-01-15T11:55:34;8.80;99.90
64689;DHT22;62504;46.070;14.492;2024-01-15T11:58:01;8.80;99.90
64689;DHT22;62504;46.070;14.492;2024-01-15T12:00:28;8.70;99.90
64689;DHT22;62504;46.070;14.492;2024-01-15T12:02:54;8.70;99.90
64689;DHT22;62504;46.070;14.492;2024-01-15T12:05:22;8.80;99.90
64689;DHT22;62504;46.070;14.492;2024-01-15T12:07:49;8.80;99.90
64689;DHT22;62504;46.070;14.492;2024-01-15T12:10:19;8.80;99.90
64689;DHT22;62504;46.070;14.492;2024-01-15T12:15:17;8.70;99.90
64689;DHT22;62504;46.070;14.492;2024-01-15T12:17:42;8.60;99.90
64689;DHT22;62504;46.070;14.492;2024-01-15T12:20:09;8.70;99.90
64689;DHT22;62504;46.070;14.492;2024-01-15T12:22:35;8.70;99.90
64689;DHT22;62504;46.070;14.492;2024-01-15T12:25:00;8.70;99.90
64689;DHT22;62504;46.070;14.492;2024-01-15T12:27:26;8.80;99.90
64689;DHT22;62504;46.070;14.492;2024-01-15T12:29:53;8.90;99.90
64689;DHT22;62504;46.070;14.492;2024-01-15T12:32:19;8.80;99.90
64689;DHT22;62504;46.070;14.492;2024-01-15T12:34:46;8.90;99.90
64689;DHT22;62504;46.070;14.492;2024-01-15T12:37:14;8.80;99.90
64689;DHT22;62504;46.070;14.492;2024-01-15T12:39:43;8.80;99.90
64689;DHT22;62504;46.070;14.492;2024-01-15T12:42:09;8.80;99.90
64689;DHT22;62504;46.070;14.492;2024-01-15T12:44:35;8.80;99.90
64689;DHT22;62504;46.070;14.492;2024-01-15T12:47:04;8.70;99.90
64689;DHT22;62504;46.070;14.492;2024-01-15T12:49:30;8.70;99.90
64689;DHT22;62504;46.070;14.492;2024-01-15T12:51:59;8.60;99.90
64689;DHT22;62504;46.070;14.492;2024-01-15T12:54:25;8.60;99.90
64689;DHT22;62504;46.070;14.492;2024-01-15T12:56:51;8.60;99.90
64689;DHT22;62504;46.070;14.492;2024-01-15T12:59:17;8.50;99.90
64689;DHT22;62504;46.070;14.492;2024-01-15T13:01:44;8.50;99.90
64689;DHT22;62504;46.070;14.492;2024-01-15T13:04:10;8.50;99.90
64689;DHT22;62504;46.070;14.492;2024-01-15T13:06:36;8.50;99.90
64689;DHT22;62504;46.070;14.492;2024-01-15T13:09:03;8.40;99.90
64689;DHT22;62504;46.070;14.492;2024-01-15T13:11:33;8.40;99.90
64689;DHT22;62504;46.070;14.492;2024-01-15T13:13:59;8.40;99.90
64689;DHT22;62504;46.070;14.492;2024-01-15T13:16:25;8.30;99.90
64689;DHT22;62504;46.070;14.492;2024-01-15T13:18:54;8.30;99.90
64689;DHT22;62504;46.070;14.492;2024-01-15T13:21:20;8.30;99.90
64689;DHT22;62504;46.070;14.492;2024-01-15T13:23:46;8.20;99.90
64689;DHT22;62504;46.070;14.492;2024-01-15T13:26:11;8.20;99.90
64689;DHT22;62504;46.070;14.492;2024-01-15T13:28:37;8.20;99.90
64689;DHT22;62504;46.070;14.492;2024-01-15T13:31:03;8.20;99.90
64689;DHT22;62504;46.070;14.492;2024-01-15T13:33:30;8.30;99.90
64689;DHT22;62504;46.070;14.492;2024-01-15T13:35:56;8.30;99.90
64689;DHT22;62504;46.070;14.492;2024-01-15T13:38:21;8.30;99.90
64689;DHT22;62504;46.070;14.492;2024-01-15T13:40:47;8.30;99.90
64689;DHT22;62504;46.070;14.492;2024-01-15T13:43:13;8.30;99.90
64689;DHT22;62504;46.070;14.492;2024-01-15T13:45:43;8.30;99.90
64689;DHT22;62504;46.070;14.492;2024-01-15T13:48:08;8.20;99.90
64689;DHT22;62504;46.070;14.492;2024-01-15T13:50:35;8.20;99.90
64689;DHT22;62504;46.070;14.492;2024-01-15T13:53:02;8.20;99.90
64689;DHT22;62504;46.070;14.492;2024-01-15T13:55:29;8.30;99.90
64689;DHT22;62504;46.070;14.492;2024-01-15T13:57:55;8.30;99.90
64689;DHT22;62504;46.070;14.492;2024-01-15T14:00:20;8.30;99.90
64689;DHT22;62504;46.070;14.492;2024-01-15T14:02:47;8.30;99.90
64689;DHT22;62504;46.070;14.492;2024-01-15T14:05:13;8.30;99.90
64689;DHT22;62504;46.070;14.492;2024-01-15T14:07:39;8.40;99.90
64689;DHT22;62504;46.070;14.492;2024-01-15T14:10:06;8.40;99.90
64689;DHT22;62504;46.070;14.492;2024-01-15T14:12:33;8.40;99.90
64689;DHT22;62504;46.070;14.492;2024-01-15T14:15:00;8.30;99.90
64689;DHT22;62504;46.070;14.492;2024-01-15T14:17:27;8.30;99.90
64689;DHT22;62504;46.070;14.492;2024-01-15T14:19:52;8.30;99.90
64689;DHT22;62504;46.070;14.492;2024-01-15T14:22:18;8.40;99.90
64689;DHT22;62504;46.070;14.492;2024-01-15T14:24:44;8.30;99.90
64689;DHT22;62504;46.070;14.492;2024-01-15T14:27:10;8.30;99.90
64689;DHT22;62504;46.070;14.492;2024-01-15T14:29:35;8.40;99.90
64689;DHT22;62504;46.070;14.492;2024-01-15T14:32:02;8.40;99.90
64689;DHT22;62504;46.070;14.492;2024-01-15T14:34:28;8.40;99.90
64689;DHT22;62504;46.070;14.492;2024-01-15T14:36:53;8.30;99.90
64689;DHT22;62504;46.070;14.492;2024-01-15T14:39:21;8.30;99.90
64689;DHT22;62504;46.070;14.492;2024-01-15T14:41:46;8.40;99.90
64689;DHT22;62504;46.070;14.492;2024-01-15T14:44:12;8.40;99.90
64689;DHT22;62504;46.070;14.492;2024-01-15T14:46:38;8.30;99.90
64689;DHT22;62504;46.070;14.492;2024-01-15T14:49:04;8.30;99.90
64689;DHT22;62504;46.070;14.492;2024-01-15T14:51:30;8.30;99.90
64689;DHT22;62504;46.070;14.492;2024-01-15T14:53:56;8.30;99.90
64689;DHT22;62504;46.070;14.492;2024-01-15T14:56:21;8.30;99.90
64689;DHT22;62504;46.070;14.492;2024-01-15T14:58:47;8.40;99.90
64689;DHT22;62504;46.070;14.492;2024-01-15T15:01:13;8.40;99.90
64689;DHT22;62504;46.070;14.492;2024-01-15T15:03:39;8.30;99.90
64689;DHT22;62504;46.070;14.492;2024-01-15T15:06:05;8.30;99.90
64689;DHT22;62504;46.070;14.492;2024-01-15T15:08:33;8.20;99.90
64689;DHT22;62504;46.070;14.492;2024-01-15T15:10:59;8.20;99.90
64689;DHT22;62504;46.070;14.492;2024-01-15T15:13:25;8.20;99.90
64689;DHT22;62504;46.070;14.492;2024-01-15T15:15:54;8.30;99.90
64689;DHT22;62504;46.070;14.492;2024-01-15T15:18:20;8.30;99.90
64689;DHT22;62504;46.070;14.492;2024-01-15T15:20:47;8.20;99.90
64689;DHT22;62504;46.070;14.492;2024-01-15T15:23:13;8.20;99.90
64689;DHT22;62504;46.070;14.492;2024-01-15T15:25:39;8.10;99.90
64689;DHT22;62504;46.070;14.492;2024-01-15T15:28:04;8.10;99.90
64689;DHT22;62504;46.070;14.492;2024-01-15T15:30:31;8.10;99.90
64689;DHT22;62504;46.070;14.492;2024-01-15T15:32:57;8.10;99.90
64689;DHT22;62504;46.070;14.492;2024-01-15T15:35:22;8.10;99.90
64689;DHT22;62504;46.070;14.492;2024-01-15T15:37:48;8.10;99.90